Muskrat Dam Airport
CZMD : rendu visible

Aérodrome :











RETROUVEZ-NOUS SUR...

 
LOGIN :

S'inscrire | Disclaimer

   EN    FR    IT 

 









Légende :    VFR   VFR Marginal   IFR   IFR Intensif   IFR Très Intensif
Visi : 
Plafond : 
>= 8 km
>= 3000ft
5 à 8 km
1000 à 3000 ft
1500m à 5 km
500 à 1000 ft
800 à 1500m
200 à 500 ft
< 800m
< 200 ft
Symboles :   Orages  Brouillard  Fortes neiges  Fortes précipitations  Vent > 20 kt






- Altitude de l'aérodrome : 911 ft
- Code IATA : MSA


CZMD - Muskrat Dam

DERNIER METAR :
  • 232000Z AUTO 05004KT 3SM -SN FEW009 OVC040 M01/M02 A2953 RMK SLP021

METARs EXPIRÉS :
  • 231900Z AUTO 05004KT 1 1/2SM -SN OVC034 M02/M03 A2953 RMK SLP022
  • 231800Z AUTO 04004KT 8SM -SN OVC046 M02/M04 A2954 RMK SLP026

TAF TAF CZMD
Valide du 23 à 18h jusqu'au 23 à 23h UTC


231742Z 2318/2323 VRB03KT 6SM -SN OVC025
TEMPO 2318/2319 1SM -SN OVC010
FM231900 20010KT 11/2SM -SN OVC008
TEMPO 2319/2323 3SM -SN OVC012
PROB30 2319/2323 1SM -SN RMK FCST BASED ON AUTO OBS. NXT FCST WILL BE ISSUED AT 241045Z



MET'MAP, la Météo Aéronautique d'un coup d'oeil ! - Copyright ORBIFLY Décembre 2007 - Disclaimer

ORBIFLY MET'MAP TEAM :

Programmation & Développement : Alexandra Zaïnal
Sur une idée originale de : Baudouin d'Aumeries
Assistance à la programmation : Marc-Olivier Méhu
Soutien technique & logistique : Manuel Goepfert

Contact : metmap@orbifly.com




SOURCES & CREDITS :

   NOAA       Earth
Advisory